Time;durP1;ratioP1;P1;durP2;ratioP2;P2;SDS_P1;SDS_P2;PMS_P1;PMS_P2;Temp;Humidity;BMP_temperature;BMP_pressure;BME280_temperature;BME280_humidity;BME280_pressure;Samples;Min_cycle;Max_cycle;Signal;HPM_P1;HPM_P2
2021/04/09 00:00:30;;;;;;;18.50;12.63;;;3.70;1.00;;;;;;3554296;40;20231;-79
2021/04/09 00:02:59;;;;;;;16.00;12.03;;;3.70;6.20;;;;;;3541406;40;20501;-77
2021/04/09 00:05:25;;;;;;;15.50;11.70;;;3.80;99.90;;;;;;3546448;40;20811;-77
2021/04/09 00:07:51;;;;;;;16.70;12.53;;;3.80;99.90;;;;;;3554084;40;20405;-77
2021/04/09 00:10:20;;;;;;;16.07;12.80;;;3.70;1.00;;;;;;3546199;40;20490;-77
2021/04/09 00:12:48;;;;;;;18.50;11.40;;;3.70;1.00;;;;;;3566772;40;20315;-77
2021/04/09 00:15:14;;;;;;;16.30;12.47;;;3.80;1.00;;;;;;3573229;40;20388;-77
2021/04/09 00:17:42;;;;;;;17.60;11.70;;;3.80;99.90;;;;;;3574717;40;20443;-77
2021/04/09 00:20:12;;;;;;;18.00;12.30;;;3.80;99.90;;;;;;3573718;40;20481;-77
2021/04/09 00:22:39;;;;;;;18.90;12.33;;;3.70;1.00;;;;;;3574045;40;20434;-77
2021/04/09 00:25:13;;;;;;;17.17;11.80;;;3.80;1.00;;;;;;3553861;40;20517;-77
2021/04/09 00:27:40;;;;;;;14.97;11.30;;;3.80;99.90;;;;;;3560410;40;20484;-77
2021/04/09 00:30:10;;;;;;;23.70;14.03;;;3.90;1.00;;;;;;3573153;40;20394;-77
2021/04/09 00:32:36;;;;;;;20.33;12.10;;;4.00;1.00;;;;;;3559323;40;20454;-77
2021/04/09 00:35:03;;;;;;;16.37;11.60;;;4.00;99.90;;;;;;3549632;40;20463;-77
2021/04/09 00:37:30;;;;;;;17.30;12.50;;;4.00;99.90;;;;;;3569310;40;20448;-78
2021/04/09 00:39:56;;;;;;;19.60;12.07;;;4.10;1.00;;;;;;3550652;40;20686;-77
2021/04/09 00:42:23;;;;;;;17.60;11.50;;;4.00;99.90;;;;;;3557726;40;20441;-77
2021/04/09 00:44:49;;;;;;;15.20;12.07;;;4.10;1.00;;;;;;3573301;40;20851;-77
2021/04/09 00:47:14;;;;;;;20.20;11.30;;;4.10;1.00;;;;;;3568029;40;20388;-77
2021/04/09 00:49:41;;;;;;;17.20;11.50;;;4.10;1.00;;;;;;3566340;40;20282;-77
2021/04/09 00:52:08;;;;;;;18.77;12.20;;;4.10;99.90;;;;;;3583091;40;20734;-77
2021/04/09 00:54:35;;;;;;;18.57;12.20;;;4.00;1.00;;;;;;3581592;40;21475;-77
2021/04/09 00:57:02;;;;;;;19.17;13.10;;;4.10;1.00;;;;;;3568555;40;20424;-77
2021/04/09 00:59:29;;;;;;;13.67;11.30;;;4.00;1.00;;;;;;3558509;40;20408;-77
2021/04/09 01:01:55;;;;;;;15.33;11.73;;;4.00;1.00;;;;;;3566103;40;20412;-78
2021/04/09 01:04:21;;;;;;;18.50;11.83;;;4.10;1.00;;;;;;3586728;23;20502;-75
2021/04/09 01:06:46;;;;;;;17.43;12.23;;;4.10;1.00;;;;;;3574753;39;20267;-74
2021/04/09 01:09:12;;;;;;;17.53;11.93;;;4.10;1.00;;;;;;3577537;39;20218;-74
2021/04/09 01:11:38;;;;;;;15.23;11.40;;;4.10;1.00;;;;;;3566627;39;20226;-75
2021/04/09 01:14:04;;;;;;;13.47;10.37;;;4.00;1.00;;;;;;3576306;39;20405;-75
2021/04/09 01:16:52;;;;;;;12.00;10.63;;;4.00;1.00;;;;;;3577563;40;20502;-76
2021/04/09 01:19:35;;;;;;;15.53;10.90;;;3.90;1.00;;;;;;3577643;40;20292;-76
2021/04/09 01:22:05;;;;;;;12.80;10.90;;;3.90;89.50;;;;;;3570271;39;20404;-75
2021/04/09 01:24:58;;;;;;;14.73;11.07;;;3.90;99.90;;;;;;3576094;40;20383;-75
2021/04/09 01:27:42;;;;;;;15.20;10.50;;;4.00;1.00;;;;;;3568289;40;20426;-75
2021/04/09 01:30:52;;;;;;;18.47;11.90;;;4.10;1.00;;;;;;3567984;40;20397;-75
2021/04/09 01:33:22;;;;;;;22.13;12.30;;;4.10;1.00;;;;;;3560790;40;20391;-75
2021/04/09 01:35:52;;;;;;;14.10;10.73;;;4.10;99.90;;;;;;3566791;40;20732;-75
2021/04/09 01:38:23;;;;;;;14.50;10.80;;;4.10;1.00;;;;;;3567844;39;20773;-75
2021/04/09 01:40:49;;;;;;;13.93;9.70;;;4.10;1.00;;;;;;3576834;40;20399;-75
2021/04/09 01:43:20;;;;;;;16.63;10.27;;;4.10;1.00;;;;;;3567033;40;20401;-75
2021/04/09 01:45:48;;;;;;;12.80;10.30;;;4.10;1.00;;;;;;3575596;40;20422;-75
2021/04/09 01:48:15;;;;;;;13.80;10.43;;;4.10;1.00;;;;;;3564944;40;20914;-75
2021/04/09 01:50:42;;;;;;;9.50;8.50;;;4.10;1.00;;;;;;3576815;40;20388;-75
2021/04/09 01:53:10;;;;;;;13.70;10.40;;;4.20;1.00;;;;;;3577359;39;20884;-75
2021/04/09 01:55:41;;;;;;;16.67;9.00;;;4.30;99.90;;;;;;3577164;40;20481;-76
2021/04/09 01:58:10;;;;;;;20.73;9.87;;;4.30;1.00;;;;;;3575841;40;20411;-75
2021/04/09 02:00:37;;;;;;;14.73;9.90;;;4.20;1.00;;;;;;3576819;40;20400;-75
2021/04/09 02:03:03;;;;;;;12.93;9.63;;;4.30;99.90;;;;;;3568415;40;20428;-75
2021/04/09 02:05:30;;;;;;;12.50;10.20;;;4.20;99.90;;;;;;3558956;40;20743;-76
2021/04/09 02:07:58;;;;;;;10.93;9.33;;;4.30;1.00;;;;;;3555700;40;20565;-75
2021/04/09 02:10:25;;;;;;;10.97;9.60;;;4.40;99.90;;;;;;3546826;40;20710;-75
2021/04/09 02:12:52;;;;;;;11.80;9.37;;;4.40;99.90;;;;;;3556483;40;20475;-75
2021/04/09 02:15:22;;;;;;;14.77;10.37;;;4.50;99.90;;;;;;3555780;40;20417;-75
2021/04/09 02:17:48;;;;;;;10.80;9.20;;;4.40;99.90;;;;;;3558952;40;20430;-76
2021/04/09 02:20:17;;;;;;;18.70;9.10;;;4.50;99.90;;;;;;3557688;40;20432;-75
2021/04/09 02:22:47;;;;;;;11.83;9.27;;;4.60;1.00;;;;;;3549462;40;20801;-75
2021/04/09 02:25:16;;;;;;;10.10;8.40;;;4.70;1.00;;;;;;3549229;40;20401;-75
2021/04/09 02:27:44;;;;;;;11.77;8.57;;;4.70;99.90;;;;;;3556906;40;20466;-75
2021/04/09 02:30:12;;;;;;;12.53;7.97;;;4.60;1.00;;;;;;3558988;40;20422;-75
2021/04/09 02:32:38;;;;;;;8.67;7.80;;;4.70;1.00;;;;;;3556941;40;20393;-75
2021/04/09 02:35:05;;;;;;;13.77;8.13;;;4.90;89.40;;;;;;3558204;40;20403;-76
2021/04/09 02:37:31;;;;;;;10.23;8.70;;;4.80;99.90;;;;;;3565507;40;20391;-75
2021/04/09 02:40:03;;;;;;;12.80;9.77;;;4.70;99.90;;;;;;3557886;40;20843;-75
2021/04/09 02:42:29;;;;;;;12.13;9.00;;;4.80;99.90;;;;;;3558033;40;20405;-75
2021/04/09 02:44:55;;;;;;;9.20;7.77;;;4.80;99.90;;;;;;3555023;40;20721;-75
2021/04/09 02:47:26;;;;;;;12.70;9.00;;;4.90;29.30;;;;;;3548128;40;20245;-75
2021/04/09 02:50:14;;;;;;;10.53;7.90;;;4.90;99.90;;;;;;3555117;40;20777;-75
2021/04/09 02:52:53;;;;;;;11.27;8.53;;;5.10;1.00;;;;;;3557422;40;20424;-75
2021/04/09 02:55:22;;;;;;;9.90;8.57;;;5.00;1.00;;;;;;3558358;40;20404;-75
2021/04/09 02:57:49;;;;;;;11.90;8.43;;;5.00;1.00;;;;;;3565660;40;20784;-76
2021/04/09 03:00:16;;;;;;;15.60;9.03;;;5.00;1.00;;;;;;3556038;40;20412;-75
2021/04/09 03:02:43;;;;;;;10.70;8.50;;;5.10;1.00;;;;;;3558105;40;21022;-75
2021/04/09 03:05:10;;;;;;;11.27;9.43;;;5.10;1.00;;;;;;3563679;40;20417;-75
2021/04/09 03:07:40;;;;;;;11.83;9.27;;;5.10;1.00;;;;;;3558762;40;20409;-75
2021/04/09 03:10:11;;;;;;;10.97;8.00;;;5.10;1.00;;;;;;3558138;40;20494;-75
2021/04/09 03:12:39;;;;;;;11.60;8.70;;;5.10;1.00;;;;;;3557796;40;20385;-75
2021/04/09 03:15:06;;;;;;;9.70;7.70;;;5.10;1.00;;;;;;3565567;40;20554;-75
2021/04/09 03:17:37;;;;;;;11.30;9.37;;;5.20;99.90;;;;;;3552107;40;20390;-75
2021/04/09 03:20:05;;;;;;;15.30;9.03;;;5.30;99.90;;;;;;3559317;40;20369;-75
2021/04/09 03:22:30;;;;;;;10.90;9.80;;;5.20;99.90;;;;;;3556966;40;20392;-75
2021/04/09 03:24:56;;;;;;;11.53;8.73;;;5.30;99.90;;;;;;3557728;40;20405;-75
2021/04/09 03:27:23;;;;;;;16.33;9.70;;;5.30;99.90;;;;;;3555585;40;20235;-75
2021/04/09 03:29:48;;;;;;;9.67;8.23;;;5.30;99.90;;;;;;3559618;40;20220;-75
2021/04/09 03:32:15;;;;;;;16.40;9.10;;;5.30;99.90;;;;;;3558556;40;20450;-75
2021/04/09 03:34:41;;;;;;;12.33;10.83;;;5.40;99.90;;;;;;3557212;40;20251;-75
2021/04/09 03:37:07;;;;;;;11.53;8.93;;;5.40;99.90;;;;;;3556992;40;20445;-75
2021/04/09 03:39:33;;;;;;;18.23;11.00;;;5.40;28.20;;;;;;3548753;40;20239;-75
2021/04/09 03:41:58;;;;;;;13.13;9.20;;;5.30;99.90;;;;;;3559757;40;20380;-75
2021/04/09 03:44:24;;;;;;;16.03;11.10;;;5.30;99.90;;;;;;3557729;40;20506;-75
2021/04/09 03:46:50;;;;;;;12.27;10.40;;;5.40;96.10;;;;;;3565042;40;20275;-75
2021/04/09 03:49:15;;;;;;;10.93;9.90;;;5.40;90.00;;;;;;3558506;40;20226;-75
2021/04/09 03:51:41;;;;;;;15.40;9.30;;;5.40;93.90;;;;;;3558033;40;20235;-75
2021/04/09 03:54:07;;;;;;;17.60;10.10;;;5.40;99.90;;;;;;3547342;40;20868;-75
2021/04/09 03:56:32;;;;;;;14.23;9.50;;;5.50;90.30;;;;;;3556864;40;20523;-75
2021/04/09 03:58:58;;;;;;;11.20;9.13;;;5.40;29.00;;;;;;3557136;40;20515;-75
2021/04/09 04:01:28;;;;;;;12.33;8.60;;;5.50;1.00;;;;;;3558138;40;20231;-75
2021/04/09 04:03:54;;;;;;;10.17;9.03;;;5.50;1.00;;;;;;3558632;40;20655;-75
2021/04/09 04:06:19;;;;;;;15.77;9.00;;;5.40;1.00;;;;;;3566991;40;20457;-75
2021/04/09 04:08:45;;;;;;;13.53;8.23;;;5.30;95.00;;;;;;3567979;40;20417;-74
2021/04/09 04:11:11;;;;;;;19.50;9.10;;;5.50;39.40;;;;;;3558307;40;20243;-76
2021/04/09 04:13:37;;;;;;;15.13;9.07;;;5.40;10.00;;;;;;3566775;40;20375;-76
2021/04/09 04:16:03;;;;;;;16.23;11.10;;;5.40;1.00;;;;;;3558313;40;20426;-76
2021/04/09 04:18:29;;;;;;;17.53;11.03;;;5.40;13.00;;;;;;3559492;40;20239;-75
2021/04/09 04:20:54;;;;;;;14.37;10.80;;;5.40;1.00;;;;;;3558420;40;20859;-75
2021/04/09 04:23:20;;;;;;;15.40;9.50;;;5.40;47.80;;;;;;3566029;40;20984;-75
2021/04/09 04:25:46;;;;;;;15.30;9.80;;;5.50;1.00;;;;;;3567783;40;20281;-75
2021/04/09 04:28:11;;;;;;;12.57;9.53;;;5.30;99.90;;;;;;3568130;40;20250;-75
2021/04/09 04:30:37;;;;;;;12.33;10.30;;;5.30;99.90;;;;;;3558329;40;20229;-75
2021/04/09 04:33:03;;;;;;;21.03;11.00;;;5.30;99.90;;;;;;3567625;40;20495;-75
2021/04/09 04:35:29;;;;;;;13.93;10.00;;;5.30;99.90;;;;;;3560699;40;20485;-75
2021/04/09 04:37:55;;;;;;;10.47;8.60;;;5.30;99.90;;;;;;3567143;40;20549;-75
2021/04/09 04:40:21;;;;;;;15.03;10.27;;;5.30;99.90;;;;;;3565603;40;20459;-76
2021/04/09 04:42:46;;;;;;;14.40;10.10;;;5.30;99.90;;;;;;3567546;40;20890;-75
2021/04/09 04:45:12;;;;;;;12.40;9.10;;;5.30;99.90;;;;;;3564233;40;20249;-75
2021/04/09 04:47:38;;;;;;;11.90;9.73;;;5.30;99.90;;;;;;3558305;40;20219;-75
2021/04/09 04:50:05;;;;;;;12.27;10.97;;;5.30;99.90;;;;;;3567970;40;20295;-75
2021/04/09 04:52:30;;;;;;;12.40;8.90;;;5.20;99.90;;;;;;3552801;40;20857;-75
2021/04/09 04:54:56;;;;;;;11.77;9.63;;;5.40;99.90;;;;;;3567433;40;20561;-75
2021/04/09 04:57:22;;;;;;;16.70;10.57;;;5.40;99.90;;;;;;3567745;40;20234;-76
2021/04/09 04:59:48;;;;;;;14.43;9.90;;;5.30;99.90;;;;;;3566188;40;20388;-74
2021/04/09 05:02:13;;;;;;;8.47;6.33;;;5.40;99.90;;;;;;3556603;40;20238;-76
2021/04/09 05:04:39;;;;;;;12.40;9.33;;;5.50;99.90;;;;;;3566869;40;20272;-76
2021/04/09 05:07:05;;;;;;;10.60;8.57;;;5.50;58.00;;;;;;3550259;40;20234;-76
2021/04/09 05:09:30;;;;;;;16.03;10.60;;;5.50;1.00;;;;;;3567010;40;20237;-77
2021/04/09 05:11:56;;;;;;;15.50;10.80;;;5.40;94.50;;;;;;3561019;40;20277;-76
2021/04/09 05:14:22;;;;;;;17.27;10.63;;;5.50;99.90;;;;;;3567417;40;21009;-77
2021/04/09 05:16:47;;;;;;;13.03;9.20;;;5.40;99.90;;;;;;3557800;40;20898;-76
2021/04/09 05:19:13;;;;;;;14.10;8.77;;;5.40;99.90;;;;;;3563997;40;20230;-76
2021/04/09 05:21:38;;;;;;;14.30;9.80;;;5.60;2.80;;;;;;3557982;40;20257;-76
2021/04/09 05:24:05;;;;;;;17.83;9.27;;;5.50;39.10;;;;;;3566687;40;20497;-77
2021/04/09 05:26:30;;;;;;;13.23;9.17;;;5.60;67.30;;;;;;3560287;40;20808;-78
2021/04/09 05:28:57;;;;;;;15.67;9.30;;;5.60;99.90;;;;;;3559541;40;20511;-76
2021/04/09 05:31:23;;;;;;;15.10;9.50;;;5.60;99.90;;;;;;3563508;40;20300;-75
2021/04/09 05:33:48;;;;;;;13.33;10.10;;;5.60;99.90;;;;;;3555974;40;20942;-75
2021/04/09 05:36:14;;;;;;;13.30;8.83;;;5.70;29.90;;;;;;3558104;40;20235;-76
2021/04/09 05:38:39;;;;;;;11.53;9.17;;;5.70;1.00;;;;;;3564319;40;20246;-75
2021/04/09 05:41:05;;;;;;;14.50;9.20;;;5.80;1.00;;;;;;3567654;40;20746;-76
2021/04/09 05:43:31;;;;;;;14.80;8.43;;;5.80;1.00;;;;;;3558443;40;20237;-76
2021/04/09 05:45:56;;;;;;;14.23;9.20;;;5.80;1.00;;;;;;3565017;40;20495;-76
2021/04/09 05:48:22;;;;;;;11.83;8.63;;;5.90;1.00;;;;;;3558489;40;20226;-76
2021/04/09 05:50:48;;;;;;;9.90;7.90;;;5.90;1.00;;;;;;3562034;40;20238;-76
2021/04/09 05:53:14;;;;;;;12.93;9.57;;;5.90;1.00;;;;;;3559799;40;20233;-76
2021/04/09 05:55:40;;;;;;;12.57;8.10;;;6.00;1.00;;;;;;3562937;40;20617;-76
2021/04/09 05:58:06;;;;;;;10.33;7.97;;;6.10;1.00;;;;;;3569196;40;20452;-77
2021/04/09 06:00:32;;;;;;;21.63;10.57;;;6.10;1.00;;;;;;3569951;40;20414;-78
2021/04/09 06:02:58;;;;;;;13.33;8.43;;;6.30;99.90;;;;;;3559282;40;20698;-76
2021/04/09 06:05:24;;;;;;;12.47;9.43;;;6.30;99.90;;;;;;3567345;40;20272;-74
2021/04/09 06:07:49;;;;;;;15.70;10.77;;;6.40;99.90;;;;;;3562799;40;20421;-75
2021/04/09 06:10:15;;;;;;;10.43;8.10;;;6.50;99.90;;;;;;3557233;40;20237;-76
2021/04/09 06:12:41;;;;;;;15.40;10.30;;;6.50;99.90;;;;;;3556622;40;20270;-75
2021/04/09 06:15:13;;;;;;;18.20;8.97;;;6.50;99.90;;;;;;3551428;40;20521;-75
2021/04/09 06:17:39;;;;;;;10.97;8.90;;;6.80;67.00;;;;;;3557011;40;20405;-75
2021/04/09 06:20:06;;;;;;;12.00;8.50;;;6.80;1.00;;;;;;3556497;40;20392;-75
2021/04/09 06:22:32;;;;;;;13.03;9.77;;;6.80;1.00;;;;;;3556925;40;20616;-76
2021/04/09 06:24:58;;;;;;;13.80;10.73;;;6.90;1.00;;;;;;3550915;40;20399;-75
2021/04/09 06:27:23;;;;;;;12.60;9.63;;;7.20;1.00;;;;;;3565239;40;20415;-76
2021/04/09 06:29:49;;;;;;;11.03;8.50;;;7.50;1.00;;;;;;3557261;40;20489;-76
2021/04/09 06:32:15;;;;;;;14.77;9.27;;;7.80;1.00;;;;;;3565398;40;20581;-75
2021/04/09 06:34:41;;;;;;;17.20;10.73;;;7.50;1.00;;;;;;3556952;40;20403;-75
2021/04/09 06:37:06;;;;;;;13.60;9.13;;;7.20;1.00;;;;;;3563965;40;20291;-75
2021/04/09 06:39:32;;;;;;;9.13;7.93;;;7.60;1.00;;;;;;3557270;40;20226;-75
2021/04/09 06:41:58;;;;;;;7.70;7.00;;;7.60;1.00;;;;;;3565810;40;20748;-75
2021/04/09 06:44:24;;;;;;;13.30;8.23;;;7.70;99.90;;;;;;3564228;40;20214;-76
2021/04/09 06:46:49;;;;;;;13.77;9.07;;;7.90;99.90;;;;;;3565409;40;20241;-76
2021/04/09 06:49:15;;;;;;;9.20;8.20;;;8.20;99.90;;;;;;3557907;40;20438;-76
2021/04/09 06:51:47;;;;;;;10.73;6.07;;;8.30;99.90;;;;;;3557762;40;20266;-75
2021/04/09 06:54:16;;;;;;;14.70;9.13;;;8.00;99.90;;;;;;3566850;40;20230;-75
2021/04/09 06:56:43;;;;;;;6.93;6.23;;;7.90;99.90;;;;;;3563383;40;20413;-75
2021/04/09 06:59:15;;;;;;;12.73;9.73;;;7.90;99.90;;;;;;3563974;40;20905;-75
2021/04/09 07:01:44;;;;;;;9.60;8.57;;;8.20;99.90;;;;;;3565032;40;20900;-75
2021/04/09 07:04:10;;;;;;;11.10;9.20;;;8.50;99.90;;;;;;3565381;40;20393;-75
2021/04/09 07:06:36;;;;;;;9.33;8.33;;;8.40;99.90;;;;;;3554677;40;20410;-75
2021/04/09 07:09:02;;;;;;;9.37;8.40;;;8.40;99.90;;;;;;3565437;40;20414;-75
2021/04/09 07:11:28;;;;;;;12.37;8.40;;;8.50;99.90;;;;;;3557301;40;20417;-75
2021/04/09 07:13:56;;;;;;;10.50;8.07;;;8.90;99.90;;;;;;3567040;40;20408;-75
2021/04/09 07:16:21;;;;;;;12.03;8.17;;;8.90;99.90;;;;;;3557179;40;20827;-75
2021/04/09 07:18:52;;;;;;;9.90;7.70;;;9.00;99.90;;;;;;3555922;40;20425;-75
2021/04/09 07:21:27;;;;;;;11.90;7.83;;;8.80;99.90;;;;;;3557858;40;20274;-75
2021/04/09 07:24:14;;;;;;;12.90;8.80;;;9.40;99.90;;;;;;3565985;40;20668;-75
2021/04/09 07:26:41;;;;;;;7.80;5.60;;;9.40;99.90;;;;;;3567286;40;20488;-75
2021/04/09 07:29:27;;;;;;;10.07;8.70;;;8.80;98.30;;;;;;3561376;40;20408;-75
2021/04/09 07:31:53;;;;;;;11.77;9.10;;;9.30;99.90;;;;;;3560664;40;20782;-76
2021/04/09 07:34:19;;;;;;;10.17;8.70;;;9.20;99.90;;;;;;3557275;40;20424;-76
2021/04/09 07:36:53;;;;;;;9.47;8.50;;;9.70;99.90;;;;;;3564313;40;20238;-76
2021/04/09 07:39:34;;;;;;;10.10;8.57;;;9.30;99.90;;;;;;3567915;40;20234;-76
2021/04/09 07:42:11;;;;;;;8.53;6.83;;;9.80;95.60;;;;;;3566016;40;20640;-76
2021/04/09 07:44:38;;;;;;;6.83;5.73;;;9.40;57.50;;;;;;3568331;40;20781;-76
2021/04/09 07:47:08;;;;;;;16.33;8.50;;;9.50;54.60;;;;;;3567531;40;20398;-76
2021/04/09 07:49:34;;;;;;;10.77;8.17;;;9.50;47.00;;;;;;3567367;40;20418;-76
2021/04/09 07:52:13;;;;;;;10.70;8.20;;;9.50;38.20;;;;;;3565438;40;20500;-76
2021/04/09 07:54:39;;;;;;;10.13;8.80;;;9.60;48.90;;;;;;3566509;40;20249;-76
2021/04/09 07:57:06;;;;;;;10.03;8.50;;;9.90;38.20;;;;;;3566205;40;20495;-76
2021/04/09 07:59:37;;;;;;;15.33;8.00;;;9.80;31.30;;;;;;3565665;40;20484;-76
2021/04/09 08:02:03;;;;;;;12.80;8.07;;;9.90;42.40;;;;;;3567433;40;20417;-76
2021/04/09 08:04:39;;;;;;;10.43;8.00;;;9.70;29.50;;;;;;3566393;40;20401;-76
2021/04/09 08:07:05;;;;;;;11.73;8.23;;;9.70;21.80;;;;;;3566137;40;20780;-76
2021/04/09 08:09:50;;;;;;;11.60;8.47;;;10.10;30.00;;;;;;3567212;40;20388;-76
2021/04/09 08:12:30;;;;;;;10.40;8.83;;;9.90;22.10;;;;;;3566285;40;20889;-76
2021/04/09 08:14:57;;;;;;;9.83;7.83;;;10.10;19.60;;;;;;3566554;40;20408;-76
2021/04/09 08:17:24;;;;;;;11.07;9.57;;;10.30;18.50;;;;;;3566271;40;20882;-76
2021/04/09 08:19:54;;;;;;;8.60;7.80;;;10.20;14.00;;;;;;3568954;40;20456;-76
2021/04/09 08:22:22;;;;;;;10.33;7.30;;;10.60;10.00;;;;;;3550766;40;20413;-76
2021/04/09 08:24:49;;;;;;;18.13;9.70;;;10.50;1.00;;;;;;3560168;40;20855;-76
2021/04/09 08:27:15;;;;;;;11.03;9.63;;;11.00;1.00;;;;;;3565511;40;21204;-76
2021/04/09 08:29:43;;;;;;;10.37;9.37;;;11.20;1.00;;;;;;3560549;40;20920;-76
2021/04/09 08:32:10;;;;;;;11.07;9.87;;;11.70;1.00;;;;;;3559642;40;20442;-76
2021/04/09 08:34:37;;;;;;;10.30;8.53;;;11.30;1.00;;;;;;3567808;40;20417;-75
2021/04/09 08:37:04;;;;;;;14.03;9.67;;;11.30;1.00;;;;;;3566296;40;20448;-75
2021/04/09 08:39:31;;;;;;;14.37;9.80;;;11.40;1.00;;;;;;3554686;40;20503;-75
2021/04/09 08:41:57;;;;;;;15.03;10.17;;;11.40;1.00;;;;;;3551040;40;20432;-75
2021/04/09 08:44:23;;;;;;;12.20;7.83;;;11.10;1.00;;;;;;3552804;40;20448;-75
2021/04/09 08:46:49;;;;;;;13.23;9.47;;;11.40;1.00;;;;;;3565587;40;20274;-75
2021/04/09 08:49:17;;;;;;;9.00;7.60;;;11.50;1.00;;;;;;3566046;40;20409;-75
2021/04/09 08:51:44;;;;;;;10.33;7.07;;;10.70;1.00;;;;;;3564547;40;20417;-75
2021/04/09 08:54:21;;;;;;;13.20;7.13;;;10.90;1.00;;;;;;3566600;40;20393;-75
2021/04/09 08:56:48;;;;;;;15.37;9.80;;;11.20;1.00;;;;;;3565924;40;21089;-75
2021/04/09 08:59:14;;;;;;;10.23;6.50;;;10.80;1.00;;;;;;3561107;40;20393;-75
2021/04/09 09:01:40;;;;;;;9.63;8.77;;;11.00;1.00;;;;;;3556921;40;20483;-76
2021/04/09 09:04:26;;;;;;;9.60;8.30;;;11.70;1.00;;;;;;3565499;40;20481;-75
2021/04/09 09:06:52;;;;;;;8.53;7.63;;;11.30;1.00;;;;;;3556709;40;20425;-75
2021/04/09 09:09:28;;;;;;;13.10;8.83;;;11.50;1.00;;;;;;3555373;40;20863;-75
2021/04/09 09:11:56;;;;;;;8.80;8.00;;;11.10;1.00;;;;;;3556041;40;20235;-76
2021/04/09 09:14:34;;;;;;;18.53;9.67;;;10.90;1.00;;;;;;3539799;40;20399;-75
2021/04/09 09:17:18;;;;;;;16.63;8.27;;;11.30;1.00;;;;;;3556778;40;20432;-76
2021/04/09 09:20:05;;;;;;;8.93;8.00;;;11.30;1.00;;;;;;3554318;40;20809;-76
2021/04/09 09:22:53;;;;;;;10.20;8.37;;;11.90;1.00;;;;;;3556082;40;20518;-76
2021/04/09 09:25:37;;;;;;;9.27;8.47;;;12.00;1.00;;;;;;3556122;40;20417;-76
2021/04/09 09:28:08;;;;;;;13.00;9.33;;;12.00;1.00;;;;;;3549030;40;20416;-76
2021/04/09 09:30:39;;;;;;;8.20;7.40;;;12.90;1.00;;;;;;3555693;40;20416;-76
2021/04/09 09:33:19;;;;;;;7.63;6.90;;;11.80;1.00;;;;;;3556741;40;20425;-75
2021/04/09 09:36:04;;;;;;;12.23;9.10;;;11.80;1.00;;;;;;3556921;40;20457;-75
2021/04/09 09:38:50;;;;;;;9.27;8.40;;;12.80;1.00;;;;;;3557332;40;20434;-75
2021/04/09 09:41:37;;;;;;;8.23;7.40;;;12.10;1.00;;;;;;3554160;40;20415;-75
2021/04/09 09:44:24;;;;;;;9.17;8.33;;;12.00;1.00;;;;;;3540604;40;20423;-76
2021/04/09 09:46:51;;;;;;;13.50;8.30;;;11.90;1.00;;;;;;3550034;40;20786;-75
2021/04/09 09:49:21;;;;;;;13.33;9.07;;;11.40;1.00;;;;;;3548906;40;20390;-75
2021/04/09 09:51:47;;;;;;;9.90;8.37;;;11.40;1.00;;;;;;3541629;40;20407;-76
2021/04/09 09:54:24;;;;;;;14.77;9.90;;;10.90;1.00;;;;;;3556741;40;21084;-76
2021/04/09 09:56:50;;;;;;;12.87;10.00;;;11.40;1.00;;;;;;3548415;40;20460;-75
2021/04/09 09:59:18;;;;;;;7.07;6.33;;;11.60;1.00;;;;;;3532237;40;20412;-76
2021/04/09 10:01:59;;;;;;;11.00;9.87;;;11.60;1.00;;;;;;3549120;40;20457;-76
2021/04/09 10:04:25;;;;;;;10.50;8.70;;;11.60;1.00;;;;;;3557028;40;20474;-76
2021/04/09 10:06:54;;;;;;;15.23;8.80;;;11.80;1.00;;;;;;3552520;40;20510;-76
2021/04/09 10:09:31;;;;;;;12.70;9.53;;;12.40;1.00;;;;;;3566365;40;20499;-76
2021/04/09 10:11:58;;;;;;;12.53;9.10;;;12.00;1.00;;;;;;3559688;40;20481;-76
2021/04/09 10:14:28;;;;;;;18.13;8.80;;;11.20;1.00;;;;;;3564770;40;20808;-77
2021/04/09 10:17:00;;;;;;;14.00;9.97;;;11.30;1.00;;;;;;3558931;40;21057;-76
2021/04/09 10:19:26;;;;;;;12.73;11.20;;;11.50;1.00;;;;;;3568086;40;20419;-76
2021/04/09 10:21:52;;;;;;;9.07;7.03;;;12.00;1.00;;;;;;3558912;40;20547;-77
2021/04/09 10:24:20;;;;;;;10.63;8.60;;;11.70;1.00;;;;;;3568133;40;20447;-76
2021/04/09 10:27:02;;;;;;;8.80;7.80;;;11.80;1.00;;;;;;3565553;40;20884;-76
2021/04/09 10:29:34;;;;;;;12.30;7.80;;;11.80;1.00;;;;;;3558654;40;20725;-77
2021/04/09 10:32:01;;;;;;;7.60;6.20;;;12.20;1.00;;;;;;3562023;40;20413;-75
2021/04/09 10:34:33;;;;;;;10.60;9.60;;;11.70;1.00;;;;;;3561271;40;20465;-76
2021/04/09 10:37:00;;;;;;;9.73;8.70;;;12.40;1.00;;;;;;3550980;40;20390;-76
2021/04/09 10:39:27;;;;;;;10.63;7.13;;;12.10;1.00;;;;;;3558190;40;20494;-76
2021/04/09 10:41:54;;;;;;;9.17;7.00;;;12.30;1.00;;;;;;3557115;40;20535;-76
2021/04/09 10:44:23;;;;;;;9.83;8.83;;;12.20;1.00;;;;;;3559579;40;20422;-76
2021/04/09 10:47:01;;;;;;;10.80;8.33;;;12.00;1.00;;;;;;3565464;40;20508;-77
2021/04/09 10:49:32;;;;;;;10.53;8.17;;;12.20;1.00;;;;;;3567448;40;20965;-77
2021/04/09 10:52:02;;;;;;;9.30;7.60;;;11.90;1.00;;;;;;3567290;40;20857;-77
2021/04/09 10:54:30;;;;;;;13.07;8.43;;;11.90;1.00;;;;;;3558520;40;20438;-77
2021/04/09 10:57:07;;;;;;;9.77;8.63;;;12.50;1.00;;;;;;3566389;40;20390;-76
2021/04/09 10:59:41;;;;;;;7.97;7.27;;;12.70;1.00;;;;;;3565688;40;20681;-76
2021/04/09 11:02:09;;;;;;;9.73;8.43;;;12.40;1.00;;;;;;3558653;40;21194;-76
2021/04/09 11:04:37;;;;;;;8.73;7.93;;;12.50;1.00;;;;;;3556463;40;20451;-76
2021/04/09 11:07:05;;;;;;;7.93;7.23;;;12.20;1.00;;;;;;3558715;40;20464;-76
2021/04/09 11:09:49;;;;;;;11.20;9.00;;;12.30;1.00;;;;;;3565920;40;20405;-76
2021/04/09 11:12:26;;;;;;;10.57;9.10;;;12.30;1.00;;;;;;3560253;40;20445;-76
2021/04/09 11:15:06;;;;;;;8.00;6.83;;;12.10;1.00;;;;;;3565874;40;20409;-77
2021/04/09 11:17:32;;;;;;;11.77;8.50;;;11.90;1.00;;;;;;3549378;40;20409;-76
2021/04/09 11:19:59;;;;;;;8.90;8.00;;;12.20;1.00;;;;;;3551264;40;20834;-76
2021/04/09 11:22:30;;;;;;;11.83;8.80;;;12.50;1.00;;;;;;3551550;40;20416;-75
2021/04/09 11:25:04;;;;;;;13.70;9.80;;;13.10;1.00;;;;;;3553701;40;20492;-76
2021/04/09 11:27:33;;;;;;;9.87;8.63;;;12.80;1.00;;;;;;3566512;40;20401;-77
2021/04/09 11:30:32;;;;;;;7.83;6.77;;;12.70;1.00;;;;;;3549918;40;20705;-76
2021/04/09 11:32:58;;;;;;;14.10;8.00;;;12.20;1.00;;;;;;3561277;40;20510;-76
2021/04/09 11:35:30;;;;;;;12.17;8.30;;;11.90;1.00;;;;;;3567602;40;20450;-75
2021/04/09 11:37:57;;;;;;;8.90;7.17;;;12.60;1.00;;;;;;3558411;40;20443;-76
2021/04/09 11:40:43;;;;;;;24.73;9.03;;;12.20;1.00;;;;;;3549041;40;20871;-77
2021/04/09 11:43:11;;;;;;;13.13;10.40;;;12.40;1.00;;;;;;3557706;40;20396;-76
2021/04/09 11:45:45;;;;;;;16.13;8.80;;;12.70;1.00;;;;;;3552104;40;20434;-77
2021/04/09 11:48:45;;;;;;;8.67;7.70;;;12.40;1.00;;;;;;3566061;40;20454;-76
2021/04/09 11:51:17;;;;;;;8.23;7.43;;;12.10;1.00;;;;;;3558550;40;20485;-76
2021/04/09 11:54:00;;;;;;;9.20;7.87;;;12.00;1.00;;;;;;3555811;40;21051;-76
2021/04/09 11:56:39;;;;;;;10.00;9.00;;;12.20;1.00;;;;;;3548999;40;20396;-76
2021/04/09 11:59:09;;;;;;;9.17;8.37;;;12.30;1.00;;;;;;3565407;40;20468;-77
2021/04/09 12:01:35;;;;;;;9.73;8.07;;;12.20;1.00;;;;;;3556135;40;20505;-76
2021/04/09 12:04:01;;;;;;;9.47;8.33;;;12.00;1.00;;;;;;3548847;40;20518;-76
2021/04/09 12:06:36;;;;;;;7.50;6.77;;;12.50;1.00;;;;;;3545158;40;20954;-76
2021/04/09 12:09:03;;;;;;;8.70;8.00;;;11.90;1.00;;;;;;3563054;40;20272;-76
2021/04/09 12:11:28;;;;;;;9.63;7.50;;;12.30;1.00;;;;;;3566498;40;20437;-76
2021/04/09 12:13:54;;;;;;;11.40;6.10;;;12.00;1.00;;;;;;3556801;40;20515;-76
2021/04/09 12:16:20;;;;;;;12.13;8.30;;;12.20;1.00;;;;;;3556405;40;20795;-76
2021/04/09 12:18:46;;;;;;;8.17;7.47;;;12.20;1.00;;;;;;3553258;40;20661;-76
2021/04/09 12:21:15;;;;;;;8.67;7.83;;;12.40;1.00;;;;;;3555025;40;20245;-76
2021/04/09 12:23:40;;;;;;;10.93;8.83;;;12.50;1.00;;;;;;3555004;40;20421;-77
2021/04/09 12:26:06;;;;;;;9.50;8.47;;;12.50;1.00;;;;;;3555744;40;20417;-76
2021/04/09 12:28:32;;;;;;;9.07;8.13;;;13.00;1.00;;;;;;3558303;40;20225;-76
2021/04/09 12:30:58;;;;;;;9.43;8.33;;;12.60;1.00;;;;;;3565573;40;20492;-76
2021/04/09 12:33:24;;;;;;;10.80;7.30;;;12.50;1.00;;;;;;3556802;40;20308;-77
2021/04/09 12:35:51;;;;;;;11.50;9.40;;;12.30;1.00;;;;;;3554620;40;20453;-77
2021/04/09 12:40:41;;;;;;;12.17;10.83;;;12.10;1.00;;;;;;3620851;39;20850;-76
2021/04/09 12:43:07;;;;;;;10.87;9.50;;;12.40;1.00;;;;;;3615425;39;20445;-77
2021/04/09 12:45:33;;;;;;;10.27;7.37;;;12.10;1.00;;;;;;3613614;39;20403;-76
2021/04/09 12:47:59;;;;;;;11.43;7.97;;;12.10;1.00;;;;;;3603418;39;20412;-77
2021/04/09 12:50:25;;;;;;;9.80;7.30;;;12.10;1.00;;;;;;3597943;39;21300;-77
2021/04/09 12:52:51;;;;;;;11.30;9.87;;;11.90;1.00;;;;;;3614779;39;20223;-74
2021/04/09 12:55:17;;;;;;;11.67;9.60;;;12.10;1.00;;;;;;3614440;39;20525;-76
2021/04/09 12:57:42;;;;;;;12.23;9.17;;;12.30;1.00;;;;;;3615127;39;20223;-75
2021/04/09 13:00:08;;;;;;;10.03;9.20;;;12.20;1.00;;;;;;3609455;39;20239;-76